createdAt,value
2017-06-03T00:00:14.692Z,1018.35
2017-06-03T00:01:29.038Z,1018.37
2017-06-03T00:02:30.946Z,1018.31
2017-06-03T00:03:32.854Z,1018.32
2017-06-03T00:04:34.763Z,1018.31
2017-06-03T00:05:36.608Z,1018.28
2017-06-03T00:06:38.654Z,1018.27
2017-06-03T00:07:40.565Z,1018.27
2017-06-03T00:08:42.477Z,1018.30
2017-06-03T00:09:44.347Z,1018.30
2017-06-03T00:10:58.596Z,1018.27
2017-06-03T00:12:00.512Z,1018.26
2017-06-03T00:13:02.406Z,1018.25
2017-06-03T00:14:04.316Z,1018.28
2017-06-03T00:15:06.161Z,1018.30
2017-06-03T00:16:08.008Z,1018.32
2017-06-03T00:17:09.916Z,1018.31
2017-06-03T00:18:11.823Z,1018.30
2017-06-03T00:19:13.732Z,1018.34
2017-06-03T00:20:27.879Z,1018.32
2017-06-03T00:21:29.787Z,1018.31
2017-06-03T00:22:31.705Z,1018.31
2017-06-03T00:23:33.604Z,1018.31
2017-06-03T00:24:35.448Z,1018.33
2017-06-03T00:25:37.297Z,1018.34
2017-06-03T00:26:39.205Z,1018.32
2017-06-03T00:27:41.113Z,1018.31
2017-06-03T00:28:43.022Z,1018.31
2017-06-03T00:29:57.217Z,1018.31
2017-06-03T00:30:59.125Z,1018.23
2017-06-03T00:32:01.031Z,1018.23
2017-06-03T00:33:03.341Z,1018.19
2017-06-03T00:34:05.187Z,1018.19
2017-06-03T00:35:07.033Z,1018.18
2017-06-03T00:36:08.945Z,1018.19
2017-06-03T00:37:10.845Z,1018.21
2017-06-03T00:38:12.953Z,1018.19
2017-06-03T00:39:27.150Z,1018.18
2017-06-03T00:40:29.059Z,1018.22
2017-06-03T00:41:30.963Z,1018.18
2017-06-03T00:42:32.871Z,1018.19
2017-06-03T00:43:34.965Z,1018.24
2017-06-03T00:44:36.813Z,1018.23
2017-06-03T00:45:38.719Z,1018.28
2017-06-03T00:46:40.626Z,1018.28
2017-06-03T00:47:42.533Z,1018.23
2017-06-03T00:48:56.709Z,1018.23
2017-06-03T00:49:58.581Z,1018.25
2017-06-03T00:51:00.491Z,1018.26
2017-06-03T00:52:02.401Z,1018.27
2017-06-03T00:53:04.282Z,1018.23
2017-06-03T00:54:06.229Z,1018.18
2017-06-03T00:55:08.077Z,1018.20
2017-06-03T00:56:09.987Z,1018.19
2017-06-03T00:57:11.896Z,1018.17
2017-06-03T00:58:26.106Z,1018.13
2017-06-03T00:59:28.013Z,1018.13
2017-06-03T01:00:29.921Z,1018.11
2017-06-03T01:01:31.829Z,1018.17
2017-06-03T01:02:33.673Z,1018.11
2017-06-03T01:03:35.521Z,1018.14
2017-06-03T01:04:37.728Z,1018.10
2017-06-03T01:05:39.638Z,1018.10
2017-06-03T01:06:41.544Z,1018.13
2017-06-03T01:07:55.692Z,1018.09
2017-06-03T01:08:57.599Z,1018.13
2017-06-03T01:09:59.508Z,1018.14
2017-06-03T01:11:12.529Z,1018.13
2017-06-03T01:12:14.437Z,1018.13
2017-06-03T01:13:16.343Z,1018.14
2017-06-03T01:14:18.252Z,1018.13
2017-06-03T01:15:20.199Z,1018.09
2017-06-03T01:16:22.043Z,1018.09
2017-06-03T01:17:23.951Z,1018.09
2017-06-03T01:18:25.858Z,1018.10
2017-06-03T01:19:27.766Z,1018.07
2017-06-03T01:20:42.115Z,1018.06
2017-06-03T01:21:44.023Z,1018.09
2017-06-03T01:22:45.930Z,1018.09
2017-06-03T01:23:47.839Z,1018.06
2017-06-03T01:24:49.684Z,1018.09
2017-06-03T01:25:51.532Z,1018.07
2017-06-03T01:26:53.439Z,1018.03
2017-06-03T01:27:55.346Z,1018.07
2017-06-03T01:28:57.253Z,1018.07
2017-06-03T01:30:11.753Z,1018.05
2017-06-03T01:31:13.661Z,1018.05
2017-06-03T01:32:15.570Z,1018.04
2017-06-03T01:33:17.480Z,1018.06
2017-06-03T01:34:19.327Z,1018.02
2017-06-03T01:35:21.173Z,1018.03
2017-06-03T01:36:23.082Z,1018.01
2017-06-03T01:37:24.990Z,1018.06
2017-06-03T01:38:26.898Z,1018.03
2017-06-03T01:39:41.098Z,1018.05
2017-06-03T01:40:43.009Z,1018.04
2017-06-03T01:41:45.219Z,1018.03
2017-06-03T01:42:47.130Z,1018.05
2017-06-03T01:43:48.976Z,1018.05
2017-06-03T01:44:50.822Z,1018.05
2017-06-03T01:45:52.730Z,1018.04
2017-06-03T01:46:54.639Z,1017.98
2017-06-03T01:47:56.549Z,1017.97
2017-06-03T01:49:10.699Z,1017.96
2017-06-03T01:50:12.606Z,1017.94
2017-06-03T01:51:14.516Z,1017.92
2017-06-03T01:52:16.826Z,1017.92
2017-06-03T01:53:18.671Z,1017.95
2017-06-03T01:54:20.514Z,1017.92
2017-06-03T01:55:22.422Z,1017.90
2017-06-03T01:56:24.331Z,1017.92
2017-06-03T01:57:26.548Z,1017.91
2017-06-03T01:58:40.692Z,1017.88
2017-06-03T01:59:42.599Z,1017.85
2017-06-03T02:00:44.508Z,1017.89
2017-06-03T02:01:46.415Z,1017.89
2017-06-03T02:02:48.263Z,1017.88
2017-06-03T02:03:50.106Z,1017.87
2017-06-03T02:04:52.016Z,1017.85
2017-06-03T02:05:53.925Z,1017.84
2017-06-03T02:06:55.834Z,1017.83
2017-06-03T02:08:10.287Z,1017.81
2017-06-03T02:09:12.197Z,1017.82
2017-06-03T02:10:14.106Z,1017.81
2017-06-03T02:11:16.011Z,1017.80
2017-06-03T02:12:17.857Z,1017.81
2017-06-03T02:13:19.703Z,1017.80
2017-06-03T02:14:21.612Z,1017.80
2017-06-03T02:15:23.518Z,1017.79
2017-06-03T02:16:25.428Z,1017.79
2017-06-03T02:17:39.928Z,1017.76
2017-06-03T02:18:41.841Z,1017.76
2017-06-03T02:19:43.751Z,1017.76
2017-06-03T02:20:45.663Z,1017.77
2017-06-03T02:21:47.512Z,1017.76
2017-06-03T02:22:49.357Z,1017.79
2017-06-03T02:23:51.266Z,1017.77
2017-06-03T02:24:53.178Z,1017.77
2017-06-03T02:25:55.088Z,1017.78
2017-06-03T02:27:09.287Z,1017.77
2017-06-03T02:28:11.215Z,1017.81
2017-06-03T02:29:13.100Z,1017.77
2017-06-03T02:30:15.009Z,1017.80
2017-06-03T02:31:16.857Z,1017.80
2017-06-03T02:32:18.706Z,1017.79
2017-06-03T02:33:20.617Z,1017.81
2017-06-03T02:34:22.525Z,1017.83
2017-06-03T02:35:24.438Z,1017.84
2017-06-03T02:36:38.639Z,1017.83
2017-06-03T02:37:40.549Z,1017.81
2017-06-03T02:38:42.462Z,1017.81
2017-06-03T02:39:44.721Z,1017.77
2017-06-03T02:40:46.570Z,1017.76
2017-06-03T02:41:48.420Z,1017.77
2017-06-03T02:42:50.331Z,1017.75
2017-06-03T02:43:52.241Z,1017.77
2017-06-03T02:44:54.155Z,1017.80
2017-06-03T02:46:08.360Z,1017.73
2017-06-03T02:47:10.271Z,1017.74
2017-06-03T02:48:12.182Z,1017.72
2017-06-03T02:49:14.092Z,1017.75
2017-06-03T02:50:16.144Z,1017.72
2017-06-03T02:51:17.997Z,1017.74
2017-06-03T02:52:19.907Z,1017.72
2017-06-03T02:53:21.823Z,1017.76
2017-06-03T02:54:23.738Z,1017.78
2017-06-03T02:55:37.890Z,1017.75
2017-06-03T02:56:39.802Z,1017.76
2017-06-03T02:57:41.711Z,1017.75
2017-06-03T02:58:43.623Z,1017.76
2017-06-03T02:59:45.473Z,1017.77
2017-06-03T03:00:47.422Z,1017.76
2017-06-03T03:01:49.335Z,1017.77
2017-06-03T03:02:51.245Z,1017.75
2017-06-03T03:03:53.158Z,1017.74
2017-06-03T03:05:07.763Z,1017.76
2017-06-03T03:06:09.679Z,1017.78
2017-06-03T03:07:11.592Z,1017.76
2017-06-03T03:08:13.504Z,1017.75
2017-06-03T03:09:15.357Z,1017.73
2017-06-03T03:10:17.220Z,1017.70
2017-06-03T03:11:19.269Z,1017.73
2017-06-03T03:12:21.184Z,1017.70
2017-06-03T03:13:23.099Z,1017.72
2017-06-03T03:14:37.253Z,1017.72
2017-06-03T03:15:39.165Z,1017.77
2017-06-03T03:16:41.078Z,1017.79
2017-06-03T03:17:42.994Z,1017.80
2017-06-03T03:18:44.847Z,1017.86
2017-06-03T03:19:46.700Z,1017.90
2017-06-03T03:20:48.574Z,1017.88
2017-06-03T03:21:50.940Z,1017.90
2017-06-03T03:22:52.854Z,1017.93
2017-06-03T03:24:07.009Z,1017.93
2017-06-03T03:25:08.923Z,1017.93
2017-06-03T03:26:10.843Z,1017.96
2017-06-03T03:27:12.756Z,1017.98
2017-06-03T03:28:14.608Z,1017.98
2017-06-03T03:29:16.464Z,1018.00
2017-06-03T03:30:18.379Z,1018.02
2017-06-03T03:31:20.318Z,1018.01
2017-06-03T03:32:22.505Z,1017.97
2017-06-03T03:33:36.667Z,1018.02
2017-06-03T03:34:38.575Z,1017.99
2017-06-03T03:35:40.494Z,1018.00
2017-06-03T03:36:42.408Z,1017.97
2017-06-03T03:37:44.263Z,1017.96
2017-06-03T03:38:46.119Z,1017.98
2017-06-03T03:39:48.035Z,1018.01
2017-06-03T03:40:49.951Z,1018.03
2017-06-03T03:41:51.866Z,1018.05
2017-06-03T03:43:06.173Z,1018.09
2017-06-03T03:44:08.091Z,1018.06
2017-06-03T03:45:10.008Z,1018.04
2017-06-03T03:46:11.927Z,1018.04
2017-06-03T03:47:13.781Z,1018.01
2017-06-03T03:48:15.936Z,1018.01
2017-06-03T03:49:17.853Z,1017.99
2017-06-03T03:50:19.771Z,1017.92
2017-06-03T03:51:21.687Z,1017.97
2017-06-03T03:52:35.848Z,1017.96
2017-06-03T03:53:37.765Z,1017.94
2017-06-03T03:54:39.683Z,1017.91
2017-06-03T03:55:41.599Z,1017.91
2017-06-03T03:56:43.457Z,1017.91
2017-06-03T03:57:45.313Z,1017.95
2017-06-03T03:58:47.533Z,1017.90
2017-06-03T03:59:49.448Z,1017.91
2017-06-03T04:00:51.365Z,1017.90
2017-06-03T04:02:05.524Z,1017.93
2017-06-03T04:03:07.438Z,1018.01
2017-06-03T04:04:09.448Z,1018.00
2017-06-03T04:05:11.361Z,1017.96
2017-06-03T04:06:13.217Z,1017.97
2017-06-03T04:07:15.069Z,1018.00
2017-06-03T04:08:16.983Z,1017.96
2017-06-03T04:09:19.202Z,1017.93
2017-06-03T04:10:21.118Z,1017.95
2017-06-03T04:11:35.275Z,1017.93
2017-06-03T04:12:37.190Z,1017.92
2017-06-03T04:13:39.106Z,1017.97
2017-06-03T04:14:41.021Z,1017.98
2017-06-03T04:15:42.878Z,1018.01
2017-06-03T04:16:44.732Z,1018.03
2017-06-03T04:17:46.649Z,1018.05
2017-06-03T04:18:48.564Z,1018.10
2017-06-03T04:19:50.732Z,1018.11
2017-06-03T04:21:04.939Z,1018.09
2017-06-03T04:22:06.855Z,1018.15
2017-06-03T04:23:08.771Z,1018.10
2017-06-03T04:24:10.685Z,1018.13
2017-06-03T04:25:12.640Z,1018.18
2017-06-03T04:26:14.494Z,1018.21
2017-06-03T04:27:16.371Z,1018.20
2017-06-03T04:28:18.487Z,1018.16
2017-06-03T04:29:20.407Z,1018.16
2017-06-03T04:30:34.968Z,1018.19
2017-06-03T04:31:36.883Z,1018.28
2017-06-03T04:32:38.799Z,1018.28
2017-06-03T04:33:40.715Z,1018.30
2017-06-03T04:34:42.569Z,1018.36
2017-06-03T04:35:44.429Z,1018.42
2017-06-03T04:36:46.342Z,1018.44
2017-06-03T04:37:48.258Z,1018.47
2017-06-03T04:38:50.177Z,1018.44
2017-06-03T04:40:04.683Z,1018.39
2017-06-03T04:41:06.601Z,1018.40
2017-06-03T04:42:08.518Z,1018.41
2017-06-03T04:43:10.437Z,1018.39
2017-06-03T04:44:12.292Z,1018.36
2017-06-03T04:45:14.148Z,1018.31
2017-06-03T04:46:16.169Z,1018.29
2017-06-03T04:47:18.086Z,1018.22
2017-06-03T04:48:20.004Z,1018.27
2017-06-03T04:49:34.165Z,1018.30
2017-06-03T04:50:36.083Z,1018.34
2017-06-03T04:51:38.203Z,1018.33
2017-06-03T04:52:40.124Z,1018.33
2017-06-03T04:53:41.977Z,1018.30
2017-06-03T04:54:43.830Z,1018.25
2017-06-03T04:55:45.750Z,1018.23
2017-06-03T04:56:47.668Z,1018.19
2017-06-03T04:57:49.584Z,1018.19
2017-06-03T04:59:03.746Z,1018.42
2017-06-03T05:00:05.665Z,1018.57
2017-06-03T05:01:07.583Z,1018.59
2017-06-03T05:02:09.503Z,1018.58
2017-06-03T05:03:11.361Z,1018.61
2017-06-03T05:04:13.219Z,1018.39
2017-06-03T05:05:15.137Z,1018.69
2017-06-03T05:06:17.059Z,1018.72
2017-06-03T05:07:18.981Z,1018.68
2017-06-03T05:08:33.189Z,1018.67
2017-06-03T05:09:35.108Z,1018.63
2017-06-03T05:10:37.028Z,1018.68
2017-06-03T05:11:38.949Z,1018.70
2017-06-03T05:12:40.809Z,1018.71
2017-06-03T05:13:42.667Z,1018.73
2017-06-03T05:14:44.586Z,1018.75
2017-06-03T05:15:46.506Z,1018.76
2017-06-03T05:16:48.429Z,1018.67
2017-06-03T05:18:02.937Z,1018.49
2017-06-03T05:19:04.857Z,1018.41
2017-06-03T05:20:06.777Z,1018.40
2017-06-03T05:21:08.703Z,1018.44
2017-06-03T05:22:10.557Z,1018.43
2017-06-03T05:23:12.513Z,1018.46
2017-06-03T05:24:14.434Z,1018.43
2017-06-03T05:25:16.354Z,1018.45
2017-06-03T05:26:18.275Z,1018.47
2017-06-03T05:27:32.486Z,1018.47
2017-06-03T05:28:34.407Z,1018.49
2017-06-03T05:29:36.327Z,1018.48
2017-06-03T05:30:38.247Z,1018.41
2017-06-03T05:31:40.107Z,1018.41
2017-06-03T05:32:41.964Z,1018.46
2017-06-03T05:33:43.884Z,1018.46
2017-06-03T05:34:45.806Z,1018.45
2017-06-03T05:35:47.727Z,1018.46
2017-06-03T05:37:01.935Z,1018.45
2017-06-03T05:38:03.853Z,1018.45
2017-06-03T05:39:08.825Z,1018.45
2017-06-03T05:40:10.742Z,1018.45
2017-06-03T05:41:12.603Z,1018.48
2017-06-03T05:42:14.457Z,1018.51
2017-06-03T05:43:16.379Z,1018.50
2017-06-03T05:44:18.299Z,1018.46
2017-06-03T05:45:20.222Z,1018.47
2017-06-03T05:46:34.385Z,1018.42
2017-06-03T05:47:36.305Z,1018.37
2017-06-03T05:48:38.224Z,1018.29
2017-06-03T05:49:40.344Z,1018.25
2017-06-03T05:50:42.206Z,1018.32
2017-06-03T05:51:44.064Z,1018.28
2017-06-03T05:52:45.983Z,1018.35
2017-06-03T05:53:47.929Z,1018.37
2017-06-03T05:54:49.820Z,1018.46
2017-06-03T05:56:04.031Z,1018.52
2017-06-03T05:57:05.951Z,1018.53
2017-06-03T05:58:07.871Z,1018.51
2017-06-03T05:59:09.794Z,1018.42
2017-06-03T06:00:11.650Z,1018.36
2017-06-03T06:01:13.510Z,1018.35
2017-06-03T06:02:15.429Z,1018.39
2017-06-03T06:03:17.351Z,1018.36
2017-06-03T06:04:19.273Z,1018.38
2017-06-03T06:05:33.782Z,1018.40
2017-06-03T06:06:35.701Z,1018.38
2017-06-03T06:07:37.621Z,1018.44
2017-06-03T06:08:39.542Z,1018.47
2017-06-03T06:09:41.401Z,1018.50
2017-06-03T06:10:43.260Z,1018.56
2017-06-03T06:11:45.179Z,1018.61
2017-06-03T06:12:47.099Z,1018.61
2017-06-03T06:13:49.023Z,1018.64
2017-06-03T06:15:03.431Z,1018.64
2017-06-03T06:16:05.351Z,1018.67
2017-06-03T06:17:07.270Z,1018.69
2017-06-03T06:18:09.192Z,1018.69
2017-06-03T06:19:11.050Z,1018.66
2017-06-03T06:20:12.908Z,1018.65
2017-06-03T06:21:14.931Z,1018.62
2017-06-03T06:22:16.851Z,1018.65
2017-06-03T06:23:18.773Z,1018.64
2017-06-03T06:24:32.936Z,1018.60
2017-06-03T06:25:34.855Z,1018.61
2017-06-03T06:26:36.974Z,1018.53
2017-06-03T06:27:38.895Z,1018.50
2017-06-03T06:28:40.753Z,1018.44
2017-06-03T06:29:42.611Z,1018.40
2017-06-03T06:30:44.532Z,1018.34
2017-06-03T06:31:46.454Z,1018.36
2017-06-03T06:32:48.373Z,1018.35
2017-06-03T06:34:02.538Z,1018.29
2017-06-03T06:35:04.463Z,1018.29
2017-06-03T06:36:06.379Z,1018.32
2017-06-03T06:37:08.400Z,1018.28
2017-06-03T06:38:10.256Z,1018.27
2017-06-03T06:39:12.115Z,1018.23
2017-06-03T06:40:14.037Z,1018.26
2017-06-03T06:41:15.960Z,1018.26
2017-06-03T06:42:18.081Z,1018.31
2017-06-03T06:43:32.289Z,1018.29
2017-06-03T06:44:34.210Z,1018.28
2017-06-03T06:45:36.131Z,1018.27
2017-06-03T06:46:38.053Z,1018.31
2017-06-03T06:47:39.912Z,1018.25
2017-06-03T06:48:41.770Z,1018.29
2017-06-03T06:49:43.689Z,1018.26
2017-06-03T06:50:45.608Z,1018.28
2017-06-03T06:51:47.532Z,1018.21
2017-06-03T06:53:01.809Z,1018.19
2017-06-03T06:54:03.726Z,1018.10
2017-06-03T06:55:05.651Z,1018.16
2017-06-03T06:56:07.564Z,1018.10
2017-06-03T06:57:09.423Z,1018.13
2017-06-03T06:58:11.281Z,1018.11
2017-06-03T06:59:13.200Z,1018.11
2017-06-03T07:00:15.121Z,1018.13
2017-06-03T07:01:17.043Z,1018.04
2017-06-03T07:02:31.407Z,1018.09
2017-06-03T07:03:33.324Z,1018.06
2017-06-03T07:04:35.246Z,1018.07
2017-06-03T07:05:37.168Z,1018.08
2017-06-03T07:06:39.027Z,1018.08
2017-06-03T07:07:40.887Z,1018.12
2017-06-03T07:08:42.908Z,1018.12
2017-06-03T07:09:44.830Z,1018.16
2017-06-03T07:10:46.752Z,1018.17
2017-06-03T07:12:00.916Z,1018.15
2017-06-03T07:13:02.837Z,1018.20
2017-06-03T07:14:04.763Z,1018.20
2017-06-03T07:15:06.677Z,1018.19
2017-06-03T07:16:08.538Z,1018.20
2017-06-03T07:17:10.478Z,1018.22
2017-06-03T07:18:12.450Z,1018.20
2017-06-03T07:19:14.954Z,1018.17
2017-06-03T07:20:17.324Z,1018.28
2017-06-03T07:21:31.626Z,1018.25
2017-06-03T07:22:33.599Z,1018.27
2017-06-03T07:23:35.526Z,1018.34
2017-06-03T07:24:37.512Z,1018.32
2017-06-03T07:25:39.792Z,1018.30
2017-06-03T07:26:41.685Z,1018.24
2017-06-03T07:27:43.613Z,1018.24
2017-06-03T07:28:45.580Z,1018.27
2017-06-03T07:29:47.501Z,1018.27
2017-06-03T07:31:02.110Z,1018.27
2017-06-03T07:32:04.036Z,1018.22
2017-06-03T07:33:06.345Z,1018.22
2017-06-03T07:34:08.311Z,1018.22
2017-06-03T07:35:10.308Z,1018.25
2017-06-03T07:36:12.230Z,1018.27
2017-06-03T07:37:14.150Z,1018.30
2017-06-03T07:38:16.070Z,1018.33
2017-06-03T07:39:17.990Z,1018.42
2017-06-03T07:40:32.203Z,1018.47
2017-06-03T07:41:34.123Z,1018.51
2017-06-03T07:42:36.048Z,1018.50
2017-06-03T07:43:37.966Z,1018.46
2017-06-03T07:44:39.828Z,1018.39
2017-06-03T07:45:42.074Z,1018.37
2017-06-03T07:46:43.992Z,1018.36
2017-06-03T07:47:45.915Z,1018.35
2017-06-03T07:48:47.860Z,1018.35
2017-06-03T07:50:02.019Z,1018.32
2017-06-03T07:51:03.972Z,1018.25
2017-06-03T07:52:05.892Z,1018.24
2017-06-03T07:53:07.810Z,1018.22
2017-06-03T07:54:09.673Z,1018.22
2017-06-03T07:55:11.533Z,1018.25
2017-06-03T07:56:13.519Z,1018.31
2017-06-03T07:57:15.432Z,1018.28
2017-06-03T07:58:17.371Z,1018.29
2017-06-03T07:59:31.564Z,1018.26
2017-06-03T08:00:33.845Z,1018.23
2017-06-03T08:01:35.881Z,1018.24
2017-06-03T08:02:37.923Z,1018.25
2017-06-03T08:03:39.913Z,1018.28
2017-06-03T08:04:41.853Z,1018.33
2017-06-03T08:05:44.086Z,1018.42
2017-06-03T08:06:48.996Z,1018.50
2017-06-03T08:07:50.859Z,1018.56
2017-06-03T08:09:05.659Z,1018.61
2017-06-03T08:10:07.795Z,1018.53
2017-06-03T08:11:09.717Z,1018.50
2017-06-03T08:12:11.859Z,1018.43
2017-06-03T08:13:13.692Z,1018.33
2017-06-03T08:14:15.550Z,1018.27
2017-06-03T08:15:17.472Z,1018.25
2017-06-03T08:16:19.399Z,1018.20
2017-06-03T08:17:21.318Z,1018.21
2017-06-03T08:18:35.657Z,1018.12
2017-06-03T08:19:37.956Z,1018.20
2017-06-03T08:20:39.941Z,1018.18
2017-06-03T08:21:42.294Z,1018.17
2017-06-03T08:22:44.481Z,1018.14
2017-06-03T08:23:46.397Z,1018.11
2017-06-03T08:24:48.737Z,1018.14
2017-06-03T08:25:50.614Z,1018.12
2017-06-03T08:26:52.539Z,1018.09
2017-06-03T08:28:06.902Z,1018.11
2017-06-03T08:29:08.819Z,1018.13
2017-06-03T08:30:10.752Z,1018.08
2017-06-03T08:31:12.677Z,1018.10
2017-06-03T08:32:14.534Z,1018.07
2017-06-03T08:33:16.396Z,1018.08
2017-06-03T08:34:18.317Z,1018.04
2017-06-03T08:35:20.236Z,1018.01
2017-06-03T08:36:22.157Z,1018.08
2017-06-03T08:37:36.630Z,1018.04
2017-06-03T08:38:38.547Z,1018.01
2017-06-03T08:39:40.468Z,1018.01
2017-06-03T08:40:42.384Z,1018.03
2017-06-03T08:41:44.246Z,1017.98
2017-06-03T08:42:46.106Z,1018.01
2017-06-03T08:43:48.025Z,1017.99
2017-06-03T08:44:49.946Z,1018.00
2017-06-03T08:45:51.869Z,1017.99
2017-06-03T08:47:06.036Z,1017.99
2017-06-03T08:48:07.959Z,1017.99
2017-06-03T08:49:09.863Z,1018.04
2017-06-03T08:50:11.784Z,1018.03
2017-06-03T08:51:13.641Z,1018.03
2017-06-03T08:52:15.516Z,1018.00
2017-06-03T08:53:17.430Z,1018.03
2017-06-03T08:54:19.387Z,1018.01
2017-06-03T08:55:21.310Z,1018.02
2017-06-03T08:56:35.866Z,1017.99
2017-06-03T08:57:38.168Z,1017.97
2017-06-03T08:58:40.172Z,1017.98
2017-06-03T08:59:42.277Z,1017.95
2017-06-03T09:00:44.150Z,1017.98
2017-06-03T09:01:46.012Z,1017.98
2017-06-03T09:02:47.934Z,1017.99
2017-06-03T09:03:49.853Z,1018.00
2017-06-03T09:04:51.782Z,1017.98
2017-06-03T09:06:05.990Z,1017.99
2017-06-03T09:07:07.907Z,1018.01
2017-06-03T09:08:09.828Z,1017.99
2017-06-03T09:09:11.756Z,1018.01
2017-06-03T09:09:57.081Z,1018.03
2017-06-03T09:10:41.800Z,1017.99
2017-06-03T09:11:44.933Z,1018.01
2017-06-03T09:12:29.613Z,1018.02
2017-06-03T09:13:33.122Z,1018.05
2017-06-03T09:14:39.067Z,1017.97
2017-06-03T09:15:23.746Z,1017.94
2017-06-03T09:16:26.902Z,1017.95
2017-06-03T09:17:11.551Z,1017.94
2017-06-03T09:18:17.482Z,1017.92
2017-06-03T09:19:33.123Z,1017.91
2017-06-03T09:20:17.806Z,1017.88
2017-06-03T09:21:46.777Z,1017.85
2017-06-03T09:22:49.953Z,1017.84
2017-06-03T09:23:55.883Z,1017.82
2017-06-03T09:24:40.565Z,1017.79
2017-06-03T09:26:09.136Z,1017.79
2017-06-03T09:27:15.079Z,1017.81
2017-06-03T09:28:30.708Z,1017.78
2017-06-03T09:29:46.289Z,1017.76
2017-06-03T09:30:30.970Z,1017.79
2017-06-03T09:31:15.647Z,1017.75
2017-06-03T09:32:00.375Z,1017.73
2017-06-03T09:32:45.074Z,1017.76
2017-06-03T09:33:29.783Z,1017.77
2017-06-03T09:34:58.356Z,1017.77
2017-06-03T09:36:01.862Z,1017.81
2017-06-03T09:36:46.614Z,1017.77
2017-06-03T09:37:55.874Z,1017.79
2017-06-03T09:39:11.504Z,1017.79
2017-06-03T09:40:27.146Z,1017.77
2017-06-03T09:41:33.011Z,1017.78
2017-06-03T09:42:17.695Z,1017.73
2017-06-03T09:43:02.477Z,1017.76
2017-06-03T09:44:05.574Z,1017.76
2017-06-03T09:45:09.080Z,1017.74
2017-06-03T09:46:24.714Z,1017.73
2017-06-03T09:47:40.286Z,1017.72
2017-06-03T09:48:55.869Z,1017.77
2017-06-03T09:50:11.498Z,1017.72
2017-06-03T09:51:27.130Z,1017.78
2017-06-03T09:52:33.063Z,1017.76
2017-06-03T09:54:00.991Z,1017.77
2017-06-03T09:55:29.566Z,1017.73
2017-06-03T09:56:33.069Z,1017.73
2017-06-03T09:57:48.705Z,1017.70
2017-06-03T09:59:04.282Z,1017.70
2017-06-03T10:00:19.855Z,1017.71
2017-06-03T10:01:35.491Z,1017.68
2017-06-03T10:02:51.127Z,1017.70
2017-06-03T10:03:35.812Z,1017.70
2017-06-03T10:04:20.491Z,1017.65
2017-06-03T10:05:23.592Z,1017.68
2017-06-03T10:06:27.099Z,1017.68
2017-06-03T10:07:42.737Z,1017.73
2017-06-03T10:08:48.610Z,1017.74
2017-06-03T10:09:33.295Z,1017.73
2017-06-03T10:10:38.853Z,1017.70
2017-06-03T10:11:41.379Z,1017.69
2017-06-03T10:12:26.067Z,1017.65
2017-06-03T10:13:29.572Z,1017.59
2017-06-03T10:14:33.075Z,1017.56
2017-06-03T10:15:48.710Z,1017.56
2017-06-03T10:17:04.289Z,1017.48
2017-06-03T10:18:18.887Z,1017.48
2017-06-03T10:19:21.415Z,1017.43
2017-06-03T10:20:06.093Z,1017.45
2017-06-03T10:21:09.093Z,1017.40
2017-06-03T10:22:24.727Z,1017.40
2017-06-03T10:23:40.361Z,1017.37
2017-06-03T10:24:43.809Z,1017.33
2017-06-03T10:25:28.489Z,1017.34
2017-06-03T10:26:57.064Z,1017.31
2017-06-03T10:28:12.700Z,1017.34
2017-06-03T10:29:28.335Z,1017.35
2017-06-03T10:30:34.206Z,1017.37
2017-06-03T10:31:18.889Z,1017.39
2017-06-03T10:32:22.399Z,1017.35
2017-06-03T10:33:25.904Z,1017.36
2017-06-03T10:34:41.546Z,1017.30
2017-06-03T10:35:47.420Z,1017.36
2017-06-03T10:36:51.070Z,1017.36
2017-06-03T10:38:06.702Z,1017.36
2017-06-03T10:39:22.342Z,1017.37
2017-06-03T10:40:28.273Z,1017.35
2017-06-03T10:42:28.189Z,1017.34
2017-06-03T10:43:13.242Z,1017.36
2017-06-03T10:43:57.966Z,1017.33
2017-06-03T10:44:42.697Z,1017.34
2017-06-03T10:45:57.791Z,1017.32
2017-06-03T10:46:42.799Z,1017.30
2017-06-03T10:47:27.536Z,1017.30
2017-06-03T10:48:31.955Z,1017.32
2017-06-03T10:49:37.886Z,1017.31
2017-06-03T10:50:52.947Z,1017.37
2017-06-03T10:51:37.988Z,1017.39
2017-06-03T10:52:41.532Z,1017.39
2017-06-03T10:53:46.573Z,1017.43
2017-06-03T10:54:31.296Z,1017.45
2017-06-03T10:55:35.283Z,1017.49
2017-06-03T10:56:20.319Z,1017.53
2017-06-03T10:57:29.832Z,1017.58
2017-06-03T10:58:33.085Z,1017.58
2017-06-03T10:59:39.415Z,1017.65
2017-06-03T11:00:24.055Z,1017.64
2017-06-03T11:01:27.202Z,1017.63
2017-06-03T11:02:30.773Z,1017.62
2017-06-03T11:03:33.775Z,1017.58
2017-06-03T11:04:36.808Z,1017.57
2017-06-03T11:05:40.615Z,1017.57
2017-06-03T11:06:25.660Z,1017.58
2017-06-03T11:07:10.345Z,1017.52
2017-06-03T11:08:16.365Z,1017.56
2017-06-03T11:09:19.925Z,1017.48
2017-06-03T11:10:04.606Z,1017.43
2017-06-03T11:10:49.343Z,1017.41
2017-06-03T11:11:34.074Z,1017.37
2017-06-03T11:12:18.760Z,1017.37
2017-06-03T11:13:22.324Z,1017.34
2017-06-03T11:14:38.386Z,1017.31
2017-06-03T11:15:42.522Z,1017.29
2017-06-03T11:16:27.242Z,1017.25
2017-06-03T11:17:30.837Z,1017.23
2017-06-03T11:18:36.812Z,1017.23
2017-06-03T11:19:40.433Z,1017.22
2017-06-03T11:20:43.167Z,1017.17
2017-06-03T11:21:46.615Z,1017.15
2017-06-03T11:22:31.611Z,1017.13
2017-06-03T11:23:34.176Z,1017.12
2017-06-03T11:24:19.234Z,1017.09
2017-06-03T11:25:22.358Z,1017.12
2017-06-03T11:26:07.175Z,1017.07
2017-06-03T11:27:10.312Z,1017.05
2017-06-03T11:28:25.425Z,1017.09
2017-06-03T11:29:28.395Z,1017.07
2017-06-03T11:30:32.295Z,1017.07
2017-06-03T11:31:17.298Z,1017.07
2017-06-03T11:32:02.366Z,1017.11
2017-06-03T11:33:05.725Z,1017.08
2017-06-03T11:34:34.344Z,1017.01
2017-06-03T11:35:40.324Z,1016.97
2017-06-03T11:36:44.239Z,1016.93
2017-06-03T11:38:12.746Z,1016.94
2017-06-03T11:39:18.682Z,1016.95
2017-06-03T11:40:03.363Z,1016.90
2017-06-03T11:41:31.944Z,1016.92
2017-06-03T11:42:37.877Z,1016.89
2017-06-03T11:43:53.539Z,1016.85
2017-06-03T11:45:09.088Z,1016.81
2017-06-03T11:46:24.665Z,1016.80
2017-06-03T11:47:09.347Z,1016.79
2017-06-03T11:48:13.862Z,1016.77
2017-06-03T11:49:28.519Z,1016.74
2017-06-03T11:50:34.457Z,1016.71
2017-06-03T11:51:37.903Z,1016.71
2017-06-03T11:52:22.586Z,1016.66
2017-06-03T11:53:27.199Z,1016.66
2017-06-03T11:54:30.708Z,1016.63
2017-06-03T11:55:45.362Z,1016.61
2017-06-03T11:56:47.830Z,1016.58
2017-06-03T11:57:32.511Z,1016.58
2017-06-03T11:58:36.453Z,1016.57
2017-06-03T11:59:21.138Z,1016.57
2017-06-03T12:00:27.069Z,1016.53
2017-06-03T12:01:42.706Z,1016.54
2017-06-03T12:02:27.387Z,1016.52
2017-06-03T12:03:55.964Z,1016.52
2017-06-03T12:04:40.646Z,1016.49
2017-06-03T12:05:25.692Z,1016.49
2017-06-03T12:06:10.371Z,1016.49
2017-06-03T12:07:13.883Z,1016.52
2017-06-03T12:07:58.567Z,1016.49
2017-06-03T12:09:27.173Z,1016.48
2017-06-03T12:10:30.682Z,1016.42
2017-06-03T12:11:45.336Z,1016.42
2017-06-03T12:13:12.869Z,1016.44
2017-06-03T12:13:57.552Z,1016.35
2017-06-03T12:15:01.878Z,1016.36
2017-06-03T12:16:05.488Z,1016.36
2017-06-03T12:17:21.127Z,1016.37
2017-06-03T12:18:36.704Z,1016.33
2017-06-03T12:19:52.336Z,1016.27
2017-06-03T12:20:58.271Z,1016.34
2017-06-03T12:21:42.956Z,1016.27
2017-06-03T12:23:11.528Z,1016.25
2017-06-03T12:24:27.165Z,1016.22
2017-06-03T12:25:30.673Z,1016.21
2017-06-03T12:26:46.250Z,1016.18
2017-06-03T12:27:31.129Z,1016.18
2017-06-03T12:28:40.297Z,1016.17
2017-06-03T12:29:55.933Z,1016.09
2017-06-03T12:31:01.865Z,1016.07
2017-06-03T12:31:46.548Z,1016.07
2017-06-03T12:33:15.122Z,1016.02
2017-06-03T12:34:30.757Z,1015.97
2017-06-03T12:35:34.264Z,1015.98
2017-06-03T12:36:49.843Z,1015.96
2017-06-03T12:37:55.813Z,1015.93
2017-06-03T12:38:40.497Z,1015.97
2017-06-03T12:39:44.006Z,1015.95
2017-06-03T12:40:47.517Z,1015.92
2017-06-03T12:41:32.201Z,1015.93
2017-06-03T12:43:00.778Z,1015.95
2017-06-03T12:44:03.303Z,1015.87
2017-06-03T12:45:06.818Z,1015.89